createdAt,value
2017-09-18T00:00:14.627Z,88.50
2017-09-18T00:01:17.117Z,88.30
2017-09-18T00:02:19.623Z,88.00
2017-09-18T00:03:22.100Z,87.80
2017-09-18T00:04:24.603Z,87.80
2017-09-18T00:05:27.097Z,87.90
2017-09-18T00:06:29.670Z,88.50
2017-09-18T00:07:32.231Z,87.90
2017-09-18T00:08:35.555Z,88.10
2017-09-18T00:09:38.113Z,88.10
2017-09-18T00:10:40.609Z,88.10
2017-09-18T00:11:43.115Z,88.20
2017-09-18T00:12:45.562Z,88.30
2017-09-18T00:13:48.804Z,88.30
2017-09-18T00:14:52.042Z,88.70
2017-09-18T00:15:56.165Z,88.30
2017-09-18T00:16:58.711Z,88.30
2017-09-18T00:18:01.287Z,88.30
2017-09-18T00:19:03.801Z,88.30
2017-09-18T00:20:07.024Z,88.50
2017-09-18T00:21:09.684Z,88.50
2017-09-18T00:22:12.226Z,88.50
2017-09-18T00:23:14.709Z,88.60
2017-09-18T00:24:17.278Z,88.60
2017-09-18T00:25:19.794Z,89.30
2017-09-18T00:26:22.309Z,88.70
2017-09-18T00:27:24.815Z,88.70
2017-09-18T00:28:27.415Z,88.60
2017-09-18T00:29:30.002Z,88.60
2017-09-18T00:30:32.628Z,88.50
2017-09-18T00:31:35.100Z,89.60
2017-09-18T00:32:37.710Z,89.60
2017-09-18T00:33:40.217Z,88.70
2017-09-18T00:34:42.719Z,88.60
2017-09-18T00:35:45.372Z,88.50
2017-09-18T00:36:47.899Z,88.30
2017-09-18T00:37:51.281Z,88.40
2017-09-18T00:38:53.944Z,88.40
2017-09-18T00:39:57.318Z,88.60
2017-09-18T00:40:59.903Z,88.60
2017-09-18T00:42:03.267Z,89.20
2017-09-18T00:43:05.790Z,88.50
2017-09-18T00:44:10.027Z,88.60
2017-09-18T00:45:13.066Z,88.50
2017-09-18T00:46:15.657Z,88.60
2017-09-18T00:47:19.037Z,88.60
2017-09-18T00:48:21.537Z,88.80
2017-09-18T00:49:24.781Z,88.70
2017-09-18T00:50:27.303Z,88.80
2017-09-18T00:51:29.776Z,88.80
2017-09-18T00:52:33.012Z,88.90
2017-09-18T00:53:36.250Z,89.00
2017-09-18T00:54:42.558Z,88.80
2017-09-18T00:55:45.093Z,88.80
2017-09-18T00:56:48.385Z,88.70
2017-09-18T00:57:50.988Z,88.60
2017-09-18T00:58:53.491Z,88.70
2017-09-18T00:59:56.739Z,88.90
2017-09-18T01:01:00.038Z,89.50
2017-09-18T01:02:02.632Z,88.80
2017-09-18T01:03:05.104Z,88.70
2017-09-18T01:04:07.598Z,88.60
2017-09-18T01:05:10.221Z,88.70
2017-09-18T01:06:12.679Z,88.60
2017-09-18T01:07:15.165Z,88.50
2017-09-18T01:08:17.728Z,88.40
2017-09-18T01:09:20.203Z,88.10
2017-09-18T01:10:22.702Z,88.00
2017-09-18T01:11:25.964Z,88.00
2017-09-18T01:12:29.181Z,87.90
2017-09-18T01:13:31.704Z,87.90
2017-09-18T01:14:34.178Z,88.40
2017-09-18T01:15:36.653Z,87.70
2017-09-18T01:16:39.173Z,87.80
2017-09-18T01:17:43.218Z,87.60
2017-09-18T01:18:45.684Z,87.60
2017-09-18T01:19:48.943Z,87.50
2017-09-18T01:20:51.437Z,87.40
2017-09-18T01:21:55.444Z,87.40
2017-09-18T01:22:57.946Z,87.30
2017-09-18T01:24:00.491Z,87.60
2017-09-18T01:25:03.007Z,87.40
2017-09-18T01:26:05.512Z,86.90
2017-09-18T01:27:08.045Z,86.90
2017-09-18T01:28:11.624Z,86.90
2017-09-18T01:29:14.146Z,86.90
2017-09-18T01:30:16.619Z,87.00
2017-09-18T01:31:19.775Z,87.10
2017-09-18T01:32:22.250Z,87.10
2017-09-18T01:33:24.818Z,86.70
2017-09-18T01:34:28.126Z,87.00
2017-09-18T01:35:30.605Z,86.70
2017-09-18T01:36:33.867Z,86.50
2017-09-18T01:37:36.429Z,86.50
2017-09-18T01:38:38.964Z,86.90
2017-09-18T01:39:41.472Z,87.20
2017-09-18T01:40:44.597Z,87.20
2017-09-18T01:41:47.133Z,87.10
2017-09-18T01:42:49.613Z,86.90
2017-09-18T01:43:52.872Z,87.20
2017-09-18T01:44:55.356Z,87.20
2017-09-18T01:45:57.936Z,87.30
2017-09-18T01:47:00.405Z,87.50
2017-09-18T01:48:02.876Z,87.90
2017-09-18T01:49:05.383Z,87.90
2017-09-18T01:50:08.652Z,87.80
2017-09-18T01:51:11.131Z,87.60
2017-09-18T01:52:15.119Z,87.70
2017-09-18T01:53:18.360Z,87.40
2017-09-18T01:54:20.942Z,87.40
2017-09-18T01:55:23.553Z,87.30
2017-09-18T01:56:26.105Z,87.60
2017-09-18T01:57:28.580Z,87.60
2017-09-18T01:58:31.060Z,87.60
2017-09-18T01:59:33.527Z,87.70
2017-09-18T02:00:36.069Z,87.90
2017-09-18T02:01:38.649Z,88.00
2017-09-18T02:02:41.886Z,88.60
2017-09-18T02:03:44.546Z,88.20
2017-09-18T02:04:47.067Z,88.50
2017-09-18T02:05:49.639Z,88.70
2017-09-18T02:06:52.137Z,89.00
2017-09-18T02:07:54.627Z,89.10
2017-09-18T02:08:57.891Z,89.20
2017-09-18T02:10:01.174Z,89.10
2017-09-18T02:11:03.653Z,89.10
2017-09-18T02:12:06.889Z,89.20
2017-09-18T02:13:10.169Z,89.00
2017-09-18T02:14:12.686Z,89.00
2017-09-18T02:15:15.156Z,89.10
2017-09-18T02:16:17.724Z,89.20
2017-09-18T02:17:20.224Z,89.30
2017-09-18T02:18:22.795Z,89.20
2017-09-18T02:19:25.251Z,89.40
2017-09-18T02:20:27.876Z,89.50
2017-09-18T02:21:30.351Z,89.30
2017-09-18T02:22:32.877Z,89.30
2017-09-18T02:23:35.429Z,89.10
2017-09-18T02:24:37.887Z,89.20
2017-09-18T02:25:40.353Z,89.50
2017-09-18T02:26:42.812Z,90.10
2017-09-18T02:27:45.276Z,89.60
2017-09-18T02:28:48.532Z,89.90
2017-09-18T02:29:51.781Z,89.90
2017-09-18T02:30:55.349Z,90.00
2017-09-18T02:31:57.867Z,89.80
2017-09-18T02:33:00.419Z,89.90
2017-09-18T02:34:02.948Z,89.80
2017-09-18T02:35:05.415Z,89.80
2017-09-18T02:36:08.220Z,90.00
2017-09-18T02:37:10.689Z,90.30
2017-09-18T02:38:13.943Z,89.90
2017-09-18T02:39:17.231Z,89.90
2017-09-18T02:40:19.715Z,89.90
2017-09-18T02:41:22.215Z,89.70
2017-09-18T02:42:25.454Z,89.90
2017-09-18T02:43:28.713Z,89.90
2017-09-18T02:44:32.064Z,89.90
2017-09-18T02:45:34.552Z,89.90
2017-09-18T02:46:37.008Z,89.90
2017-09-18T02:47:39.488Z,89.90
2017-09-18T02:48:42.073Z,90.00
2017-09-18T02:49:45.359Z,90.10
2017-09-18T02:50:47.878Z,90.10
2017-09-18T02:51:50.355Z,90.10
2017-09-18T02:52:52.814Z,90.10
2017-09-18T02:53:55.276Z,90.20
2017-09-18T02:54:58.552Z,90.00
2017-09-18T02:56:01.083Z,90.00
2017-09-18T02:57:03.547Z,90.10
2017-09-18T02:58:06.033Z,90.10
2017-09-18T02:59:08.501Z,90.20
2017-09-18T03:00:11.022Z,90.10
2017-09-18T03:01:13.480Z,90.20
2017-09-18T03:02:16.714Z,90.20
2017-09-18T03:03:19.228Z,90.20
2017-09-18T03:04:21.698Z,90.20
2017-09-18T03:05:24.171Z,90.30
2017-09-18T03:06:26.687Z,90.30
2017-09-18T03:07:29.163Z,90.40
2017-09-18T03:08:31.714Z,90.20
2017-09-18T03:09:34.552Z,90.20
2017-09-18T03:10:37.534Z,90.30
2017-09-18T03:11:40.020Z,90.40
2017-09-18T03:12:42.480Z,90.50
2017-09-18T03:13:45.727Z,90.60
2017-09-18T03:14:48.197Z,90.60
2017-09-18T03:15:50.707Z,90.60
2017-09-18T03:16:53.228Z,90.60
2017-09-18T03:17:56.459Z,90.60
2017-09-18T03:18:59.688Z,91.10
2017-09-18T03:20:03.692Z,91.20
2017-09-18T03:21:06.509Z,91.20
2017-09-18T03:22:08.972Z,91.20
2017-09-18T03:23:11.460Z,91.20
2017-09-18T03:24:13.943Z,91.30
2017-09-18T03:25:16.505Z,91.30
2017-09-18T03:26:19.829Z,91.30
2017-09-18T03:27:22.279Z,91.30
2017-09-18T03:28:24.759Z,91.40
2017-09-18T03:29:27.221Z,91.40
2017-09-18T03:30:30.583Z,91.30
2017-09-18T03:31:33.046Z,91.30
2017-09-18T03:32:35.519Z,91.30
2017-09-18T03:33:38.046Z,91.30
2017-09-18T03:34:40.595Z,91.40
2017-09-18T03:35:43.061Z,91.40
2017-09-18T03:36:45.519Z,91.40
2017-09-18T03:37:48.056Z,91.40
2017-09-18T03:38:50.556Z,91.40
2017-09-18T03:39:54.128Z,91.50
2017-09-18T03:40:56.603Z,91.50
2017-09-18T03:41:59.111Z,91.50
2017-09-18T03:43:01.587Z,91.50
2017-09-18T03:44:04.829Z,91.60
2017-09-18T03:45:08.080Z,91.70
2017-09-18T03:46:10.563Z,91.60
2017-09-18T03:47:13.038Z,91.70
2017-09-18T03:48:15.508Z,91.80
2017-09-18T03:49:17.975Z,91.80
2017-09-18T03:50:21.256Z,91.90
2017-09-18T03:51:23.737Z,91.80
2017-09-18T03:52:26.970Z,91.90
2017-09-18T03:53:30.244Z,91.90
2017-09-18T03:54:32.766Z,91.80
2017-09-18T03:55:35.268Z,91.90
2017-09-18T03:56:38.533Z,91.80
2017-09-18T03:57:41.011Z,91.80
2017-09-18T03:58:43.480Z,91.80
2017-09-18T03:59:46.735Z,91.90
2017-09-18T04:00:49.272Z,91.90
2017-09-18T04:01:51.755Z,91.90
2017-09-18T04:02:55.005Z,91.90
2017-09-18T04:03:58.256Z,91.90
2017-09-18T04:05:00.948Z,91.90
2017-09-18T04:06:03.527Z,91.90
2017-09-18T04:07:05.991Z,91.90
2017-09-18T04:08:08.453Z,91.90
2017-09-18T04:09:11.691Z,91.90
2017-09-18T04:10:14.932Z,91.90
2017-09-18T04:11:18.268Z,91.90
2017-09-18T04:12:21.534Z,92.00
2017-09-18T04:13:24.789Z,91.90
2017-09-18T04:14:27.315Z,91.90
2017-09-18T04:15:29.811Z,91.90
2017-09-18T04:16:33.041Z,92.00
2017-09-18T04:17:35.528Z,92.00
2017-09-18T04:18:38.023Z,92.10
2017-09-18T04:19:40.515Z,92.10
2017-09-18T04:20:43.005Z,92.00
2017-09-18T04:21:45.482Z,92.00
2017-09-18T04:22:48.709Z,92.00
2017-09-18T04:23:51.267Z,92.00
2017-09-18T04:24:53.741Z,92.00
2017-09-18T04:25:56.261Z,92.00
2017-09-18T04:26:58.712Z,92.10
2017-09-18T04:28:01.995Z,92.10
2017-09-18T04:29:04.482Z,92.10
2017-09-18T04:30:06.947Z,92.10
2017-09-18T04:31:09.462Z,92.40
2017-09-18T04:32:12.172Z,92.20
2017-09-18T04:33:15.419Z,92.20
2017-09-18T04:34:18.654Z,92.50
2017-09-18T04:35:21.909Z,92.50
2017-09-18T04:36:25.175Z,92.40
2017-09-18T04:37:27.640Z,92.40
2017-09-18T04:38:31.663Z,92.30
2017-09-18T04:39:34.176Z,92.30
2017-09-18T04:40:36.841Z,92.40
2017-09-18T04:41:39.430Z,92.40
2017-09-18T04:42:42.791Z,92.40
2017-09-18T04:43:45.290Z,92.40
2017-09-18T04:44:48.548Z,92.60
2017-09-18T04:45:51.009Z,92.50
2017-09-18T04:46:53.509Z,92.50
2017-09-18T04:47:56.019Z,92.40
2017-09-18T04:48:58.561Z,92.40
2017-09-18T04:50:01.095Z,92.30
2017-09-18T04:51:03.584Z,92.30
2017-09-18T04:52:06.955Z,92.30
2017-09-18T04:53:09.439Z,92.30
2017-09-18T04:54:12.672Z,92.30
2017-09-18T04:55:18.034Z,92.30
2017-09-18T04:56:20.518Z,92.30
2017-09-18T04:57:22.999Z,92.30
2017-09-18T04:58:25.476Z,92.30
2017-09-18T04:59:27.940Z,92.40
2017-09-18T05:00:30.464Z,92.40
2017-09-18T05:01:32.928Z,92.60
2017-09-18T05:02:36.156Z,93.00
2017-09-18T05:03:38.628Z,93.00
2017-09-18T05:04:41.084Z,93.00
2017-09-18T05:05:43.571Z,92.50
2017-09-18T05:06:46.063Z,92.30
2017-09-18T05:07:49.305Z,92.20
2017-09-18T05:08:52.571Z,92.40
2017-09-18T05:09:55.086Z,92.40
2017-09-18T05:10:58.325Z,92.40
2017-09-18T05:12:02.194Z,92.20
2017-09-18T05:13:04.680Z,92.10
2017-09-18T05:14:07.189Z,91.90
2017-09-18T05:15:10.374Z,91.80
2017-09-18T05:16:13.611Z,91.60
2017-09-18T05:17:16.897Z,91.50
2017-09-18T05:18:19.401Z,91.50
2017-09-18T05:19:21.869Z,91.40
2017-09-18T05:20:24.324Z,91.20
2017-09-18T05:21:27.567Z,91.10
2017-09-18T05:22:30.803Z,91.00
2017-09-18T05:23:34.078Z,91.00
2017-09-18T05:24:36.578Z,91.00
2017-09-18T05:25:39.811Z,91.20
2017-09-18T05:26:43.067Z,91.20
2017-09-18T05:27:46.334Z,91.30
2017-09-18T05:28:48.813Z,91.20
2017-09-18T05:29:51.279Z,91.30
2017-09-18T05:30:53.775Z,91.30
2017-09-18T05:31:56.234Z,91.50
2017-09-18T05:32:58.719Z,91.50
2017-09-18T05:34:01.188Z,91.50
2017-09-18T05:35:03.671Z,91.90
2017-09-18T05:36:06.176Z,91.60
2017-09-18T05:37:08.648Z,91.70
2017-09-18T05:38:11.872Z,91.70
2017-09-18T05:39:15.128Z,91.70
2017-09-18T05:40:18.363Z,91.70
2017-09-18T05:41:21.618Z,91.70
2017-09-18T05:42:24.101Z,91.70
2017-09-18T05:43:28.206Z,91.70
2017-09-18T05:44:30.678Z,91.70
2017-09-18T05:45:33.256Z,91.80
2017-09-18T05:46:35.724Z,91.80
2017-09-18T05:47:38.183Z,91.80
2017-09-18T05:48:41.559Z,91.80
2017-09-18T05:49:44.026Z,91.80
2017-09-18T05:50:46.616Z,91.80
2017-09-18T05:51:49.088Z,91.80
2017-09-18T05:52:51.595Z,91.80
2017-09-18T05:53:54.127Z,91.80
2017-09-18T05:54:56.597Z,91.90
2017-09-18T05:55:59.829Z,91.90
2017-09-18T05:57:04.361Z,91.90
2017-09-18T05:58:06.825Z,91.90
2017-09-18T05:59:10.067Z,91.90
2017-09-18T06:00:13.300Z,91.80
2017-09-18T06:01:16.494Z,91.90
2017-09-18T06:02:19.049Z,91.80
2017-09-18T06:03:21.533Z,91.80
2017-09-18T06:04:23.999Z,91.70
2017-09-18T06:05:26.479Z,91.70
2017-09-18T06:06:28.962Z,91.80
2017-09-18T06:07:31.424Z,91.80
2017-09-18T06:08:33.921Z,92.00
2017-09-18T06:09:37.144Z,91.60
2017-09-18T06:10:39.728Z,91.60
2017-09-18T06:11:42.195Z,91.60
2017-09-18T06:12:46.300Z,91.60
2017-09-18T06:13:48.870Z,91.60
2017-09-18T06:14:51.557Z,91.50
2017-09-18T06:15:54.022Z,91.50
2017-09-18T06:16:56.483Z,91.40
2017-09-18T06:17:59.736Z,91.20
2017-09-18T06:19:02.968Z,91.10
2017-09-18T06:20:06.235Z,91.00
2017-09-18T06:21:08.802Z,91.00
2017-09-18T06:22:11.262Z,90.80
2017-09-18T06:23:14.499Z,89.80
2017-09-18T06:24:17.733Z,88.40
2017-09-18T06:25:20.295Z,88.30
2017-09-18T06:26:22.761Z,86.40
2017-09-18T06:27:25.244Z,85.10
2017-09-18T06:28:27.708Z,84.00
2017-09-18T06:29:30.395Z,83.30
2017-09-18T06:30:32.934Z,81.30
2017-09-18T06:31:35.628Z,80.00
2017-09-18T06:32:39.184Z,77.70
2017-09-18T06:33:42.412Z,76.50
2017-09-18T06:34:44.996Z,76.40
2017-09-18T06:35:47.583Z,75.60
2017-09-18T06:36:50.859Z,73.20
2017-09-18T06:37:53.399Z,73.10
2017-09-18T06:38:55.933Z,73.00
2017-09-18T06:39:58.520Z,72.50
2017-09-18T06:41:01.838Z,70.80
2017-09-18T06:42:05.200Z,70.70
2017-09-18T06:43:07.697Z,70.00
2017-09-18T06:44:10.256Z,69.70
2017-09-18T06:45:13.684Z,69.60
2017-09-18T06:46:16.949Z,68.00
2017-09-18T06:47:19.487Z,67.90
2017-09-18T06:48:22.031Z,67.40
2017-09-18T06:49:24.586Z,67.10
2017-09-18T06:50:27.069Z,66.70
2017-09-18T06:51:29.617Z,66.00
2017-09-18T06:52:32.216Z,65.30
2017-09-18T06:53:34.719Z,64.90
2017-09-18T06:54:38.133Z,64.00
2017-09-18T06:55:40.752Z,63.90
2017-09-18T06:56:43.303Z,63.50
2017-09-18T06:57:45.958Z,63.00
2017-09-18T06:58:49.256Z,62.70
2017-09-18T06:59:52.011Z,62.70
2017-09-18T07:00:54.491Z,62.20
2017-09-18T07:01:56.974Z,63.00
2017-09-18T07:03:00.347Z,62.60
2017-09-18T07:04:02.899Z,62.60
2017-09-18T07:05:05.380Z,62.20
2017-09-18T07:06:08.595Z,61.30
2017-09-18T07:07:11.363Z,61.30
2017-09-18T07:08:13.900Z,61.20
2017-09-18T07:09:16.413Z,60.80
2017-09-18T07:10:18.999Z,60.50
2017-09-18T07:11:21.541Z,59.50
2017-09-18T07:12:24.124Z,58.50
2017-09-18T07:13:26.724Z,59.10
2017-09-18T07:14:29.225Z,59.90
2017-09-18T07:15:32.695Z,59.20
2017-09-18T07:16:35.377Z,59.30
2017-09-18T07:17:38.294Z,59.60
2017-09-18T07:18:40.904Z,59.60
2017-09-18T07:19:43.479Z,59.50
2017-09-18T07:20:46.224Z,59.00
2017-09-18T07:21:48.773Z,59.30
2017-09-18T07:22:51.597Z,59.10
2017-09-18T07:23:54.259Z,59.00
2017-09-18T07:24:56.898Z,57.50
2017-09-18T07:25:59.473Z,57.60
2017-09-18T07:27:02.733Z,58.20
2017-09-18T07:28:05.317Z,58.10
2017-09-18T07:29:08.671Z,58.10
2017-09-18T07:30:11.381Z,58.00
2017-09-18T07:31:13.971Z,58.00
2017-09-18T07:32:16.489Z,58.30
2017-09-18T07:33:19.030Z,58.20
2017-09-18T07:34:21.605Z,58.90
2017-09-18T07:35:24.178Z,58.90
2017-09-18T07:36:26.976Z,58.10
2017-09-18T07:37:30.421Z,57.60
2017-09-18T07:38:33.909Z,57.50
2017-09-18T07:39:36.389Z,56.60
2017-09-18T07:40:38.971Z,56.00
2017-09-18T07:41:41.546Z,56.20
2017-09-18T07:42:44.075Z,56.60
2017-09-18T07:43:47.452Z,56.30
2017-09-18T07:44:49.984Z,56.30
2017-09-18T07:45:53.082Z,55.60
2017-09-18T07:46:56.384Z,54.60
2017-09-18T07:47:58.893Z,54.60
2017-09-18T07:49:01.516Z,55.40
2017-09-18T07:50:03.995Z,54.20
2017-09-18T07:51:06.553Z,55.10
2017-09-18T07:52:09.089Z,54.90
2017-09-18T07:53:11.649Z,54.90
2017-09-18T07:54:14.172Z,54.10
2017-09-18T07:55:16.725Z,54.40
2017-09-18T07:56:19.358Z,54.10
2017-09-18T07:57:22.644Z,54.00
2017-09-18T07:58:25.300Z,53.90
2017-09-18T07:59:27.837Z,53.80
2017-09-18T08:00:30.391Z,54.60
2017-09-18T08:01:33.757Z,53.30
2017-09-18T08:02:36.260Z,52.60
2017-09-18T08:03:39.544Z,52.10
2017-09-18T08:04:42.123Z,52.10
2017-09-18T08:05:44.693Z,52.60
2017-09-18T08:06:47.219Z,52.40
2017-09-18T08:07:49.708Z,51.80
2017-09-18T08:08:53.020Z,52.50
2017-09-18T08:09:55.511Z,52.50
2017-09-18T08:10:57.991Z,51.90
2017-09-18T08:12:00.473Z,51.50
2017-09-18T08:13:03.084Z,52.30
2017-09-18T08:14:05.679Z,53.10
2017-09-18T08:15:08.933Z,52.00
2017-09-18T08:16:11.441Z,52.00
2017-09-18T08:17:13.935Z,51.60
2017-09-18T08:18:17.091Z,50.70
2017-09-18T08:19:19.757Z,50.80
2017-09-18T08:20:22.254Z,51.40
2017-09-18T08:21:24.760Z,51.30
2017-09-18T08:22:27.244Z,51.80
2017-09-18T08:23:29.737Z,51.10
2017-09-18T08:24:32.264Z,51.30
2017-09-18T08:25:34.797Z,51.40
2017-09-18T08:26:38.115Z,52.40
2017-09-18T08:27:40.602Z,52.40
2017-09-18T08:28:43.090Z,52.90
2017-09-18T08:29:45.648Z,52.80
2017-09-18T08:30:48.193Z,52.90
2017-09-18T08:31:50.683Z,53.40
2017-09-18T08:32:54.024Z,53.80
2017-09-18T08:33:56.531Z,53.70
2017-09-18T08:34:59.824Z,54.20
2017-09-18T08:36:02.330Z,54.20
2017-09-18T08:37:05.649Z,53.70
2017-09-18T08:38:08.175Z,53.60
2017-09-18T08:39:11.423Z,55.80
2017-09-18T08:40:14.681Z,55.70
2017-09-18T08:41:18.055Z,56.30
2017-09-18T08:42:20.609Z,56.30
2017-09-18T08:43:23.141Z,55.70
2017-09-18T08:44:25.636Z,56.40
2017-09-18T08:45:28.204Z,57.30
2017-09-18T08:46:30.727Z,58.10
2017-09-18T08:47:33.247Z,58.80
2017-09-18T08:48:35.854Z,59.20
2017-09-18T08:49:38.411Z,58.50
2017-09-18T08:50:40.919Z,58.50
2017-09-18T08:51:43.569Z,60.40
2017-09-18T08:52:46.215Z,61.20
2017-09-18T08:53:48.768Z,60.90
2017-09-18T08:54:51.400Z,61.20
2017-09-18T08:55:54.170Z,61.20
2017-09-18T08:56:56.684Z,61.70
2017-09-18T08:57:59.197Z,62.50
2017-09-18T08:59:01.726Z,61.60
2017-09-18T09:00:04.392Z,62.60
2017-09-18T09:01:07.657Z,61.70
2017-09-18T09:02:10.247Z,61.70
2017-09-18T09:03:12.994Z,61.30
2017-09-18T09:04:15.622Z,62.10
2017-09-18T09:05:18.211Z,62.00
2017-09-18T09:06:20.706Z,62.20
2017-09-18T09:07:23.468Z,62.70
2017-09-18T09:08:25.969Z,62.40
2017-09-18T09:09:28.510Z,62.80
2017-09-18T09:10:31.078Z,63.40
2017-09-18T09:11:34.433Z,63.00
2017-09-18T09:12:37.810Z,65.10
2017-09-18T09:13:40.321Z,64.20
2017-09-18T09:14:43.664Z,64.20
2017-09-18T09:15:47.437Z,64.10
2017-09-18T09:16:50.050Z,64.60
2017-09-18T09:17:52.629Z,65.10
2017-09-18T09:18:55.178Z,65.10
2017-09-18T09:19:58.541Z,65.30
2017-09-18T09:21:01.943Z,65.30
2017-09-18T09:22:05.286Z,65.50
2017-09-18T09:23:07.780Z,65.50
2017-09-18T09:24:11.059Z,65.80
2017-09-18T09:25:13.588Z,65.80
2017-09-18T09:26:16.135Z,66.70
2017-09-18T09:27:18.634Z,65.60
2017-09-18T09:28:21.961Z,65.80
2017-09-18T09:29:24.696Z,65.10
2017-09-18T09:30:27.396Z,65.20
2017-09-18T09:31:29.932Z,66.00
2017-09-18T09:32:32.434Z,65.50
2017-09-18T09:33:35.825Z,65.80
2017-09-18T09:34:38.391Z,65.80
2017-09-18T09:35:42.028Z,67.00
2017-09-18T09:36:45.547Z,68.00
2017-09-18T09:37:48.206Z,67.20
2017-09-18T09:38:50.705Z,67.10
2017-09-18T09:39:53.255Z,67.70
2017-09-18T09:40:55.783Z,66.60
2017-09-18T09:41:58.769Z,66.20
2017-09-18T09:43:01.330Z,65.00
2017-09-18T09:44:03.871Z,65.00
2017-09-18T09:45:07.143Z,64.20
2017-09-18T09:46:09.688Z,64.20
2017-09-18T09:47:12.307Z,63.80
2017-09-18T09:48:14.869Z,64.80
2017-09-18T09:49:17.371Z,66.00
2017-09-18T09:50:19.912Z,66.90
2017-09-18T09:51:22.423Z,64.90
2017-09-18T09:52:25.037Z,65.10
2017-09-18T09:53:28.377Z,65.30
2017-09-18T09:54:31.662Z,66.00
2017-09-18T09:55:34.192Z,66.00
2017-09-18T09:56:36.687Z,64.70
2017-09-18T09:57:39.244Z,64.10
2017-09-18T09:58:41.845Z,64.60
2017-09-18T09:59:44.368Z,64.40
2017-09-18T10:00:46.919Z,65.10
2017-09-18T10:01:49.471Z,64.60
2017-09-18T10:02:51.997Z,63.70
2017-09-18T10:03:55.431Z,64.30
2017-09-18T10:04:57.949Z,63.60
2017-09-18T10:06:00.451Z,65.60
2017-09-18T10:07:03.071Z,66.00
2017-09-18T10:08:05.592Z,63.50
2017-09-18T10:09:08.181Z,63.50
2017-09-18T10:10:11.572Z,63.10
2017-09-18T10:11:14.108Z,63.00
2017-09-18T10:12:16.672Z,61.90
2017-09-18T10:13:19.179Z,63.40
2017-09-18T10:14:21.704Z,64.20
2017-09-18T10:15:24.216Z,63.60
2017-09-18T10:16:26.751Z,63.20
2017-09-18T10:17:29.345Z,63.40
2017-09-18T10:18:31.827Z,63.50
2017-09-18T10:19:34.379Z,63.10
2017-09-18T10:20:36.896Z,62.40
2017-09-18T10:21:40.072Z,63.40
2017-09-18T10:22:42.656Z,63.60
2017-09-18T10:23:45.246Z,64.60
2017-09-18T10:24:47.821Z,64.50
2017-09-18T10:25:51.099Z,62.60
2017-09-18T10:26:53.662Z,62.60
2017-09-18T10:27:56.149Z,61.80
2017-09-18T10:28:58.724Z,61.20
2017-09-18T10:30:02.086Z,59.80
2017-09-18T10:31:05.380Z,60.50
2017-09-18T10:32:07.889Z,61.00
2017-09-18T10:33:10.403Z,61.10
2017-09-18T10:34:12.944Z,60.30
2017-09-18T10:35:15.467Z,60.20
2017-09-18T10:36:17.980Z,60.40
2017-09-18T10:37:20.476Z,59.80
2017-09-18T10:38:23.080Z,59.50
2017-09-18T10:39:26.067Z,59.70
2017-09-18T10:40:29.347Z,60.90
2017-09-18T10:41:31.877Z,60.80
2017-09-18T10:42:34.371Z,61.10
2017-09-18T10:43:36.859Z,61.80
2017-09-18T10:44:39.432Z,61.80
2017-09-18T10:45:41.966Z,61.40
2017-09-18T10:46:44.478Z,62.10
2017-09-18T10:47:47.098Z,62.80
2017-09-18T10:48:49.612Z,62.60
2017-09-18T10:49:52.975Z,62.90
2017-09-18T10:50:55.446Z,62.80
2017-09-18T10:51:57.928Z,62.00
2017-09-18T10:53:00.407Z,61.10
2017-09-18T10:54:02.871Z,60.60
2017-09-18T10:55:05.374Z,61.40
2017-09-18T10:56:08.634Z,60.30
2017-09-18T10:57:11.887Z,60.60
2017-09-18T10:58:14.339Z,60.60
2017-09-18T10:59:16.825Z,61.20
2017-09-18T11:00:19.288Z,60.60
2017-09-18T11:01:21.811Z,61.20
2017-09-18T11:02:25.131Z,61.50
2017-09-18T11:03:27.642Z,60.10
2017-09-18T11:04:30.852Z,59.10
2017-09-18T11:05:33.419Z,59.10
2017-09-18T11:06:35.898Z,58.10
2017-09-18T11:07:38.722Z,57.90
2017-09-18T11:08:41.211Z,58.20
2017-09-18T11:09:43.674Z,58.50
2017-09-18T11:10:46.131Z,58.90
2017-09-18T11:11:49.444Z,59.30
2017-09-18T11:12:52.019Z,59.30
2017-09-18T11:13:54.493Z,59.60
2017-09-18T11:14:56.947Z,60.20
2017-09-18T11:16:00.170Z,59.80
2017-09-18T11:17:03.427Z,60.90
2017-09-18T11:18:05.935Z,60.10
2017-09-18T11:19:08.379Z,58.80
2017-09-18T11:20:11.614Z,59.60
2017-09-18T11:21:14.163Z,59.50
2017-09-18T11:22:17.433Z,58.40
2017-09-18T11:23:20.463Z,58.40
2017-09-18T11:24:22.932Z,58.50
2017-09-18T11:25:25.840Z,57.90
2017-09-18T11:26:28.391Z,58.00
2017-09-18T11:27:31.011Z,58.50
2017-09-18T11:28:33.496Z,58.90
2017-09-18T11:29:36.004Z,58.50
2017-09-18T11:30:39.244Z,59.30
2017-09-18T11:31:41.711Z,59.30
2017-09-18T11:32:44.177Z,59.30
2017-09-18T11:33:46.646Z,57.70
2017-09-18T11:34:49.161Z,57.20
2017-09-18T11:35:51.641Z,56.30
2017-09-18T11:36:54.155Z,55.50
2017-09-18T11:37:57.011Z,56.10
2017-09-18T11:38:59.883Z,57.10
2017-09-18T11:40:02.347Z,57.10
2017-09-18T11:41:04.811Z,57.70
2017-09-18T11:42:08.067Z,56.20
2017-09-18T11:43:10.531Z,56.20
2017-09-18T11:44:13.035Z,55.60
2017-09-18T11:45:15.511Z,54.50
2017-09-18T11:46:18.784Z,55.30
2017-09-18T11:47:21.267Z,55.70
2017-09-18T11:48:23.752Z,54.80
2017-09-18T11:49:26.229Z,54.90
2017-09-18T11:50:28.700Z,54.70
2017-09-18T11:51:31.205Z,54.00
2017-09-18T11:52:34.506Z,53.20
2017-09-18T11:53:36.990Z,53.20
2017-09-18T11:54:40.245Z,53.70
2017-09-18T11:55:42.719Z,53.10
2017-09-18T11:56:45.252Z,52.40
2017-09-18T11:57:48.494Z,51.80
2017-09-18T11:58:51.051Z,51.80
2017-09-18T11:59:53.539Z,53.30
2017-09-18T12:00:55.995Z,52.30
2017-09-18T12:01:58.484Z,52.30
2017-09-18T12:03:00.994Z,51.80
2017-09-18T12:04:03.459Z,51.90
2017-09-18T12:05:05.925Z,51.90
2017-09-18T12:06:08.542Z,50.50
2017-09-18T12:07:11.099Z,49.90
2017-09-18T12:08:15.267Z,50.30
2017-09-18T12:09:17.832Z,50.30
2017-09-18T12:10:21.092Z,50.80
2017-09-18T12:11:23.778Z,50.80
2017-09-18T12:12:27.077Z,52.50
2017-09-18T12:13:29.788Z,52.40
2017-09-18T12:14:32.253Z,53.00
2017-09-18T12:15:35.552Z,54.00
2017-09-18T12:16:38.073Z,53.50
2017-09-18T12:17:40.590Z,53.10
2017-09-18T12:18:43.845Z,53.80
2017-09-18T12:19:46.391Z,53.80
2017-09-18T12:20:48.878Z,54.10
2017-09-18T12:21:52.363Z,54.00
2017-09-18T12:22:54.855Z,54.00
2017-09-18T12:23:58.332Z,54.90
2017-09-18T12:25:00.959Z,54.70
2017-09-18T12:26:03.466Z,54.70
2017-09-18T12:27:10.419Z,55.10
2017-09-18T12:28:12.974Z,54.60
2017-09-18T12:29:16.382Z,55.40
2017-09-18T12:30:19.028Z,55.40
2017-09-18T12:31:21.519Z,55.20
2017-09-18T12:32:24.112Z,55.00
2017-09-18T12:33:27.387Z,54.10
2017-09-18T12:34:29.888Z,54.00
2017-09-18T12:35:32.414Z,53.70
2017-09-18T12:36:34.979Z,53.20
2017-09-18T12:37:37.492Z,52.70
2017-09-18T12:38:40.009Z,53.20
2017-09-18T12:39:43.234Z,51.70
2017-09-18T12:40:45.807Z,51.70
2017-09-18T12:41:48.321Z,51.10
2017-09-18T12:42:50.839Z,50.90
2017-09-18T12:43:53.427Z,51.00
2017-09-18T12:44:56.027Z,50.90
2017-09-18T12:45:58.728Z,50.70
2017-09-18T12:47:01.245Z,50.90
2017-09-18T12:48:04.484Z,51.50
2017-09-18T12:49:07.059Z,51.50
2017-09-18T12:50:09.582Z,51.40
2017-09-18T12:51:12.126Z,50.20
2017-09-18T12:52:14.604Z,49.60
2017-09-18T12:53:17.167Z,50.40
2017-09-18T12:54:19.709Z,50.70
2017-09-18T12:55:22.192Z,50.10
2017-09-18T12:56:24.782Z,50.90
2017-09-18T12:57:27.311Z,51.50
2017-09-18T12:58:30.685Z,50.40
2017-09-18T12:59:33.242Z,50.40
2017-09-18T13:00:35.860Z,50.00
2017-09-18T13:01:38.674Z,49.40
2017-09-18T13:02:41.148Z,49.90
2017-09-18T13:03:43.692Z,49.80
2017-09-18T13:04:46.989Z,50.20
2017-09-18T13:05:49.647Z,50.20
2017-09-18T13:06:52.229Z,49.60
2017-09-18T13:07:54.906Z,48.80
2017-09-18T13:08:57.413Z,49.60
2017-09-18T13:10:00.005Z,50.60
2017-09-18T13:11:02.499Z,49.10
2017-09-18T13:12:06.176Z,49.80
2017-09-18T13:13:08.685Z,49.70
2017-09-18T13:14:11.241Z,51.60
2017-09-18T13:15:13.706Z,51.40
2017-09-18T13:16:16.169Z,50.90
2017-09-18T13:17:18.639Z,51.60
2017-09-18T13:18:21.131Z,50.70
2017-09-18T13:19:23.616Z,51.20
2017-09-18T13:20:26.200Z,51.50
2017-09-18T13:21:28.661Z,51.70
2017-09-18T13:22:31.115Z,51.30
2017-09-18T13:23:33.576Z,51.40
2017-09-18T13:24:36.187Z,51.60
2017-09-18T13:25:38.724Z,49.60
2017-09-18T13:26:41.185Z,49.20
2017-09-18T13:27:43.641Z,48.90